Time;durP1;ratioP1;P1;durP2;ratioP2;P2;SDS_P1;SDS_P2;PMS_P1;PMS_P2;Temp;Humidity;BMP_temperature;BMP_pressure;BME280_temperature;BME280_humidity;BME280_pressure;Samples;Min_cycle;Max_cycle;Signal;HPM_P1;HPM_P2
2021/12/19 00:00:51;;;;;;;;;;;;;;;7.93;56.36;100672.66;4296505;33;20032;-84
2021/12/19 00:08:51;;;;;;;;;;;;;;;8.53;54.47;100661.25;4280040;33;19996;-85
2021/12/19 00:11:19;;;;;;;;;;;;;;;8.33;54.90;100651.03;4283559;33;19977;-84
2021/12/19 00:13:45;;;;;;;;;;;;;;;8.32;55.03;100654.41;4286173;33;19985;-85
2021/12/19 00:16:14;;;;;;;;;;;;;;;8.51;54.46;100639.66;4282300;33;19989;-84
2021/12/19 00:18:43;;;;;;;;;;;;;;;8.42;54.67;100641.91;4291448;33;20028;-84
2021/12/19 00:21:15;;;;;;;;;;;;;;;8.06;55.89;100637.06;4297336;33;20343;-85
2021/12/19 00:23:42;;;;;;;;;;;;;;;8.28;55.37;100643.94;4297213;33;20024;-86
2021/12/19 00:26:09;;;;;;;;;;;;;;;8.30;55.36;100632.00;4297187;33;19996;-85
2021/12/19 00:28:35;;;;;;;;;;;;;;;8.38;55.13;100621.16;4296471;33;19977;-85
2021/12/19 00:31:03;;;;;;;;;;;;;;;8.50;54.82;100625.88;4296709;33;20016;-84
2021/12/19 00:33:30;;;;;;;;;;;;;;;8.20;55.54;100620.44;4297303;33;20073;-85
2021/12/19 00:35:57;;;;;;;;;;;;;;;8.27;55.69;100612.09;4296079;33;20337;-85
2021/12/19 00:38:24;;;;;;;;;;;;;;;8.58;54.91;100608.09;4297161;33;19977;-86
2021/12/19 00:40:51;;;;;;;;;;;;;;;8.47;55.33;100610.28;4296950;33;20732;-85
2021/12/19 00:43:54;;;;;;;;;;;;;;;8.35;55.65;100609.81;4292921;33;20008;-86
2021/12/19 00:46:12;;;;;;;;;;;;;;;8.27;55.95;100612.09;4294514;33;20486;-85
2021/12/19 00:48:41;;;;;;;;;;;;;;;7.90;57.33;100615.84;4296786;33;20024;-87
2021/12/19 00:51:09;;;;;;;;;;;;;;;7.78;57.61;100620.50;4295613;33;20039;-84
2021/12/19 00:53:37;;;;;;;;;;;;;;;8.17;56.40;100615.16;4296659;33;20016;-86
2021/12/19 00:56:04;;;;;;;;;;;;;;;7.81;57.74;100615.47;4296247;33;19988;-84
2021/12/19 00:58:31;;;;;;;;;;;;;;;8.03;57.21;100606.00;4297022;33;19980;-85
2021/12/19 01:00:58;;;;;;;;;;;;;;;7.97;57.51;100605.78;4295205;33;20000;-84
2021/12/19 01:03:25;;;;;;;;;;;;;;;8.37;56.33;100611.62;4008034;33;10001238;-85
2021/12/19 01:05:53;;;;;;;;;;;;;;;8.40;56.18;100602.28;4290764;33;19997;-86
2021/12/19 01:08:21;;;;;;;;;;;;;;;8.54;55.92;100611.41;4296061;33;20422;-86
2021/12/19 01:10:48;;;;;;;;;;;;;;;8.57;55.74;100611.50;4295633;33;19989;-85
2021/12/19 01:13:16;;;;;;;;;;;;;;;8.60;55.71;100604.75;4296389;33;20054;-85
2021/12/19 01:15:43;;;;;;;;;;;;;;;8.48;56.03;100596.56;4291517;33;20006;-84
2021/12/19 01:18:11;;;;;;;;;;;;;;;8.66;55.81;100595.50;4296350;33;20007;-84
2021/12/19 01:20:39;;;;;;;;;;;;;;;8.54;56.21;100590.75;4296267;33;19984;-85
2021/12/19 01:23:06;;;;;;;;;;;;;;;8.56;56.12;100577.09;4296968;33;19996;-86
2021/12/19 01:25:32;;;;;;;;;;;;;;;8.27;57.18;100576.00;4295187;33;20806;-85
2021/12/19 01:27:59;;;;;;;;;;;;;;;8.29;56.94;100563.16;4295123;33;19988;-87
2021/12/19 01:30:26;;;;;;;;;;;;;;;8.64;56.04;100556.72;4296704;33;19972;-85
2021/12/19 01:32:53;;;;;;;;;;;;;;;8.66;56.20;100551.63;4296636;33;20066;-86
2021/12/19 01:35:21;;;;;;;;;;;;;;;8.59;56.41;100547.94;4294976;33;19984;-85
2021/12/19 01:37:48;;;;;;;;;;;;;;;8.74;56.21;100545.91;4296414;33;20004;-86
2021/12/19 01:40:15;;;;;;;;;;;;;;;8.46;57.17;100546.63;4296440;33;20763;-86
2021/12/19 01:42:43;;;;;;;;;;;;;;;8.64;56.46;100540.34;4295962;33;20032;-86
2021/12/19 01:45:12;;;;;;;;;;;;;;;8.41;57.60;100537.84;4293824;33;19992;-84
2021/12/19 01:47:38;;;;;;;;;;;;;;;8.93;56.19;100551.69;4296009;33;20397;-84
2021/12/19 01:50:06;;;;;;;;;;;;;;;8.82;56.51;100541.87;4296557;33;19980;-83
2021/12/19 01:52:33;;;;;;;;;;;;;;;8.55;57.59;100535.72;4296074;33;19977;-84
2021/12/19 01:55:00;;;;;;;;;;;;;;;8.53;57.65;100537.41;4295730;33;20044;-86
2021/12/19 01:57:27;;;;;;;;;;;;;;;8.55;57.74;100539.22;4296005;33;19992;-84
2021/12/19 01:59:54;;;;;;;;;;;;;;;8.27;58.38;100533.84;4295104;33;19973;-84
2021/12/19 02:02:21;;;;;;;;;;;;;;;8.11;59.53;100524.69;4295766;33;19989;-84
2021/12/19 02:04:48;;;;;;;;;;;;;;;8.49;58.02;100514.91;4295768;33;20281;-85
2021/12/19 02:07:15;;;;;;;;;;;;;;;8.30;58.84;100505.59;4296340;33;20344;-85
2021/12/19 02:09:42;;;;;;;;;;;;;;;8.17;59.43;100496.53;4295643;33;20029;-84
2021/12/19 02:12:09;;;;;;;;;;;;;;;8.71;57.55;100491.59;4279657;33;19985;-85
2021/12/19 02:14:36;;;;;;;;;;;;;;;8.83;57.23;100491.13;4290414;33;19992;-85
2021/12/19 02:17:03;;;;;;;;;;;;;;;8.95;56.85;100495.81;4296065;33;20342;-84
2021/12/19 02:19:30;;;;;;;;;;;;;;;8.73;57.60;100484.75;4293928;33;20036;-84
2021/12/19 02:21:57;;;;;;;;;;;;;;;9.08;56.55;100492.81;4295740;33;19972;-84
2021/12/19 02:24:24;;;;;;;;;;;;;;;8.64;58.06;100486.16;4296308;33;20390;-84
2021/12/19 02:26:51;;;;;;;;;;;;;;;8.89;57.18;100474.97;4296682;33;19988;-84
2021/12/19 02:29:17;;;;;;;;;;;;;;;8.91;57.37;100463.00;4295772;33;20023;-84
2021/12/19 02:31:45;;;;;;;;;;;;;;;9.01;57.11;100454.72;4296228;33;20040;-85
2021/12/19 02:34:23;;;;;;;;;;;;;;;8.65;58.27;100457.84;4293844;33;19995;-84
2021/12/19 02:37:00;;;;;;;;;;;;;;;8.48;59.18;100457.25;4294553;33;20032;-83
2021/12/19 02:50:30;;;;;;;;;;;;;;;9.32;56.20;100425.56;4295665;33;19981;-84
2021/12/19 02:52:58;;;;;;;;;;;;;;;9.45;55.82;100434.56;4296349;33;20032;-85
2021/12/19 02:55:25;;;;;;;;;;;;;;;9.49;55.74;100423.47;4296546;33;20043;-84
2021/12/19 02:57:52;;;;;;;;;;;;;;;9.22;56.50;100419.22;4297494;33;20007;-84
2021/12/19 03:00:21;;;;;;;;;;;;;;;9.18;56.49;100422.53;4297475;33;19980;-85
2021/12/19 03:02:49;;;;;;;;;;;;;;;9.29;56.15;100415.12;4295778;33;19988;-85
2021/12/19 03:05:16;;;;;;;;;;;;;;;9.30;55.92;100422.91;4296871;33;20032;-83
2021/12/19 03:07:44;;;;;;;;;;;;;;;8.96;57.30;100399.44;4297314;33;20041;-84
2021/12/19 03:10:44;;;;;;;;;;;;;;;9.22;56.41;100408.91;4296356;33;20307;-84
2021/12/19 03:18:17;;;;;;;;;;;;;;;9.06;57.01;100391.16;4296898;33;20036;-85
2021/12/19 03:20:44;;;;;;;;;;;;;;;8.30;59.25;100381.81;4297443;33;19984;-85
2021/12/19 03:23:11;;;;;;;;;;;;;;;8.76;57.78;100371.31;4296577;33;20315;-85
2021/12/19 03:25:39;;;;;;;;;;;;;;;8.67;57.80;100386.47;4296708;33;19995;-86
2021/12/19 03:28:06;;;;;;;;;;;;;;;9.02;56.73;100368.66;4297673;33;20028;-86
2021/12/19 03:30:33;;;;;;;;;;;;;;;8.97;56.76;100360.78;4296538;33;19989;-86
2021/12/19 03:33:00;;;;;;;;;;;;;;;9.05;56.55;100373.91;4296712;33;20044;-85
2021/12/19 03:35:29;;;;;;;;;;;;;;;8.77;57.49;100362.72;3976761;33;10010065;-84
2021/12/19 03:38:00;;;;;;;;;;;;;;;9.15;56.05;100357.88;4297416;33;20059;-84
2021/12/19 03:40:39;;;;;;;;;;;;;;;8.78;57.45;100349.00;4304282;33;20051;-86
2021/12/19 03:43:07;;;;;;;;;;;;;;;8.82;57.09;100337.94;4302537;33;20015;-86
2021/12/19 03:45:34;;;;;;;;;;;;;;;8.88;56.85;100329.50;4322070;33;20015;-85
2021/12/19 03:48:03;;;;;;;;;;;;;;;8.91;56.60;100328.75;4315267;33;20478;-85
2021/12/19 03:50:32;;;;;;;;;;;;;;;8.88;56.94;100339.84;4323299;33;19998;-83
2021/12/19 03:53:00;;;;;;;;;;;;;;;8.50;57.80;100323.16;4323461;33;19995;-82
2021/12/19 03:55:26;;;;;;;;;;;;;;;8.52;57.84;100316.31;4323407;33;20109;-83
2021/12/19 03:57:55;;;;;;;;;;;;;;;8.80;56.99;100331.84;4323464;33;20063;-84
2021/12/19 04:00:24;;;;;;;;;;;;;;;8.50;57.65;100325.72;4323127;33;20019;-84
2021/12/19 04:02:56;;;;;;;;;;;;;;;8.74;57.18;100321.34;4323717;33;19980;-83
2021/12/19 04:05:23;;;;;;;;;;;;;;;9.00;56.10;100329.91;4322574;33;20000;-85
2021/12/19 04:07:51;;;;;;;;;;;;;;;8.69;57.27;100332.34;4322599;33;20006;-85
2021/12/19 04:10:18;;;;;;;;;;;;;;;8.44;58.11;100331.56;4322910;33;19988;-82
2021/12/19 04:12:44;;;;;;;;;;;;;;;8.63;57.35;100327.88;4315740;33;19989;-82
2021/12/19 04:15:11;;;;;;;;;;;;;;;8.61;57.13;100329.50;4296800;33;19984;-84
2021/12/19 04:17:38;;;;;;;;;;;;;;;8.44;57.67;100328.09;4296749;33;20423;-84
2021/12/19 04:20:06;;;;;;;;;;;;;;;8.66;56.99;100332.25;4297564;33;19981;-86
2021/12/19 04:22:33;;;;;;;;;;;;;;;8.79;56.44;100327.53;4296161;33;20511;-86
2021/12/19 04:25:00;;;;;;;;;;;;;;;8.36;57.83;100323.56;4296584;33;19984;-85
2021/12/19 04:27:26;;;;;;;;;;;;;;;8.43;57.29;100334.09;4296889;33;20032;-85
2021/12/19 04:29:54;;;;;;;;;;;;;;;8.58;56.61;100319.09;4296301;33;19997;-84
2021/12/19 04:32:26;;;;;;;;;;;;;;;8.44;57.27;100330.69;4296920;33;20032;-84
2021/12/19 04:34:53;;;;;;;;;;;;;;;8.04;58.27;100321.56;4296361;33;20015;-84
2021/12/19 04:40:14;;;;;;;;;;;;;;;8.53;56.63;100310.34;4296907;33;19989;-84
2021/12/19 04:53:52;;;;;;;;;;;;;;;8.91;55.35;100302.91;4295838;33;20040;-84
2021/12/19 05:15:14;;;;;;;;;;;;;;;8.48;56.55;100260.28;4296004;33;20324;-84
2021/12/19 05:17:41;;;;;;;;;;;;;;;8.44;56.41;100263.63;4296177;33;19989;-84
2021/12/19 05:22:42;;;;;;;;;;;;;;;8.43;56.89;100251.56;4294521;33;20730;-85
2021/12/19 05:25:17;;;;;;;;;;;;;;;8.08;57.62;100269.31;4296529;33;20020;-85
2021/12/19 05:27:44;;;;;;;;;;;;;;;7.49;60.23;100270.72;4296205;33;20060;-84
2021/12/19 05:30:12;;;;;;;;;;;;;;;7.83;58.77;100255.59;4296331;33;20311;-86
2021/12/19 05:32:40;;;;;;;;;;;;;;;8.23;57.74;100246.63;4296980;33;19996;-85
2021/12/19 05:35:10;;;;;;;;;;;;;;;8.44;57.35;100228.38;4294523;33;19973;-84
2021/12/19 05:45:53;;;;;;;;;;;;;;;8.54;56.64;100219.22;4295880;33;20032;-83
2021/12/19 05:48:20;;;;;;;;;;;;;;;8.56;56.84;100233.03;4295831;33;20008;-83
2021/12/19 05:50:47;;;;;;;;;;;;;;;8.79;56.19;100221.69;4295177;33;20040;-84
2021/12/19 05:53:15;;;;;;;;;;;;;;;8.48;57.19;100231.91;4296438;33;20244;-84
2021/12/19 05:55:42;;;;;;;;;;;;;;;8.18;58.46;100224.09;4295804;33;22226;-83
2021/12/19 05:58:09;;;;;;;;;;;;;;;8.56;57.04;100222.72;4296722;33;19984;-84
2021/12/19 06:00:36;;;;;;;;;;;;;;;8.61;56.88;100226.28;4296024;33;20041;-83
2021/12/19 06:03:03;;;;;;;;;;;;;;;8.52;57.17;100231.19;4295411;33;20010;-83
2021/12/19 06:05:30;;;;;;;;;;;;;;;8.83;56.48;100222.66;4296284;33;19988;-83
2021/12/19 06:07:56;;;;;;;;;;;;;;;8.42;57.83;100218.81;4294729;33;19996;-83
2021/12/19 06:10:25;;;;;;;;;;;;;;;8.50;57.76;100222.53;4295821;33;19994;-83
2021/12/19 06:12:52;;;;;;;;;;;;;;;8.53;57.71;100225.22;4296014;33;19992;-84
2021/12/19 06:15:19;;;;;;;;;;;;;;;8.81;56.75;100217.47;4296609;33;20024;-83
2021/12/19 06:17:47;;;;;;;;;;;;;;;8.64;57.17;100210.03;4295296;33;20032;-83
2021/12/19 06:20:13;;;;;;;;;;;;;;;8.59;57.56;100205.63;4292755;33;20421;-83
2021/12/19 06:22:41;;;;;;;;;;;;;;;8.47;57.78;100217.28;4296489;33;19993;-84
2021/12/19 06:25:09;;;;;;;;;;;;;;;8.28;58.47;100206.34;4295138;33;19980;-83
2021/12/19 06:27:36;;;;;;;;;;;;;;;8.71;57.29;100218.03;4293496;33;19988;-84
2021/12/19 06:30:03;;;;;;;;;;;;;;;9.00;56.24;100210.25;4294504;33;20283;-84
2021/12/19 06:32:30;;;;;;;;;;;;;;;8.96;56.34;100213.56;4295715;33;20363;-83
2021/12/19 06:34:59;;;;;;;;;;;;;;;8.77;57.08;100213.00;4295641;33;19968;-85
2021/12/19 06:37:26;;;;;;;;;;;;;;;8.99;56.35;100198.16;4295589;33;19992;-85
2021/12/19 06:39:53;;;;;;;;;;;;;;;8.63;57.68;100200.56;4295518;33;19985;-83
2021/12/19 06:42:21;;;;;;;;;;;;;;;9.08;56.01;100201.00;4294216;33;20374;-84
2021/12/19 06:44:47;;;;;;;;;;;;;;;9.07;56.24;100182.03;4294630;33;19976;-83
2021/12/19 06:47:14;;;;;;;;;;;;;;;9.08;56.01;100180.34;4296658;33;19984;-84
2021/12/19 06:49:41;;;;;;;;;;;;;;;8.83;56.91;100192.53;4295069;33;19996;-85
2021/12/19 06:52:08;;;;;;;;;;;;;;;8.78;57.19;100178.66;4293189;33;20000;-84
2021/12/19 06:54:35;;;;;;;;;;;;;;;8.81;57.06;100183.91;4289456;33;20020;-83
2021/12/19 06:57:02;;;;;;;;;;;;;;;8.88;56.79;100178.91;4294526;33;20012;-84
2021/12/19 06:59:28;;;;;;;;;;;;;;;8.67;57.58;100174.00;4289594;33;19993;-82
2021/12/19 07:01:55;;;;;;;;;;;;;;;8.89;56.79;100178.06;4294473;33;20060;-82
2021/12/19 07:04:22;;;;;;;;;;;;;;;8.81;57.54;100173.56;4311090;33;20036;-81
2021/12/19 07:06:49;;;;;;;;;;;;;;;9.17;56.43;100165.09;4292026;33;20012;-83
2021/12/19 07:09:16;;;;;;;;;;;;;;;9.17;56.01;100152.19;4294406;33;19989;-84
2021/12/19 07:11:43;;;;;;;;;;;;;;;9.05;56.49;100164.75;4293049;33;20002;-86
2021/12/19 07:14:10;;;;;;;;;;;;;;;9.35;55.72;100156.06;4292991;33;19980;-86
2021/12/19 07:16:37;;;;;;;;;;;;;;;8.76;57.34;100157.06;4292093;33;20012;-82
2021/12/19 07:19:04;;;;;;;;;;;;;;;8.91;56.85;100148.03;4292146;33;20001;-84
2021/12/19 07:21:31;;;;;;;;;;;;;;;8.87;57.02;100141.00;4293762;33;20063;-88
2021/12/19 07:23:58;;;;;;;;;;;;;;;9.31;55.58;100145.66;4315599;33;19983;-91
2021/12/19 07:26:25;;;;;;;;;;;;;;;9.39;55.17;100137.25;4294786;33;20000;-86
2021/12/19 07:28:52;;;;;;;;;;;;;;;8.69;57.32;100137.09;4295309;33;20035;-87
2021/12/19 07:31:20;;;;;;;;;;;;;;;9.34;55.36;100144.00;4294664;33;19993;-82
2021/12/19 07:33:47;;;;;;;;;;;;;;;9.07;56.27;100147.59;4294367;33;19977;-82
2021/12/19 07:36:17;;;;;;;;;;;;;;;9.14;56.28;100152.09;4294043;33;20019;-82
2021/12/19 07:39:07;;;;;;;;;;;;;;;9.36;55.58;100152.66;4295981;33;19988;-84
2021/12/19 07:41:33;;;;;;;;;;;;;;;9.40;55.51;100133.81;4294451;33;20041;-83
2021/12/19 07:44:00;;;;;;;;;;;;;;;9.39;55.44;100147.59;4294595;33;19981;-83
2021/12/19 07:46:28;;;;;;;;;;;;;;;9.31;55.76;100148.22;4295935;33;19984;-85
2021/12/19 07:48:54;;;;;;;;;;;;;;;9.43;55.23;100149.41;4297852;33;19988;-85
2021/12/19 07:51:21;;;;;;;;;;;;;;;9.39;55.52;100151.03;4296044;33;20043;-84
2021/12/19 07:53:48;;;;;;;;;;;;;;;9.17;55.89;100146.16;4296760;33;20052;-85
2021/12/19 07:56:15;;;;;;;;;;;;;;;9.32;55.80;100137.09;4296767;33;20027;-84
2021/12/19 07:58:42;;;;;;;;;;;;;;;9.39;55.73;100137.25;4296339;33;20007;-85
2021/12/19 08:01:08;;;;;;;;;;;;;;;9.34;55.62;100129.34;4296446;33;21179;-82
2021/12/19 08:03:36;;;;;;;;;;;;;;;9.27;55.59;100118.00;4296664;33;19976;-85
2021/12/19 08:06:03;;;;;;;;;;;;;;;9.56;54.88;100135.94;4294948;33;20024;-93
2021/12/19 08:08:32;;;;;;;;;;;;;;;9.50;55.25;100125.47;4289307;33;19992;-85
2021/12/19 08:13:45;;;;;;;;;;;;;;;9.47;55.43;100115.03;4292300;33;20004;-86
2021/12/19 08:16:12;;;;;;;;;;;;;;;8.23;59.22;100115.09;4292439;33;20012;-82
2021/12/19 08:18:39;;;;;;;;;;;;;;;8.95;57.48;100100.78;4293576;33;20039;-86
2021/12/19 08:21:05;;;;;;;;;;;;;;;8.89;57.54;100091.16;4293111;33;20036;-85
2021/12/19 08:23:34;;;;;;;;;;;;;;;8.70;58.08;100087.22;4292021;33;19992;-82
2021/12/19 08:26:01;;;;;;;;;;;;;;;9.04;57.25;100094.16;4288635;33;19985;-84
2021/12/19 08:28:28;;;;;;;;;;;;;;;9.32;56.26;100089.72;4307294;33;20059;-83
2021/12/19 08:30:55;;;;;;;;;;;;;;;9.29;56.65;100087.06;4291993;33;20007;-83
2021/12/19 08:33:22;;;;;;;;;;;;;;;8.88;58.08;100086.84;4292896;33;19985;-84
2021/12/19 08:35:49;;;;;;;;;;;;;;;9.48;56.54;100078.06;4292334;33;20012;-84
2021/12/19 08:38:16;;;;;;;;;;;;;;;9.49;56.26;100087.53;4310214;33;20014;-82
2021/12/19 08:40:46;;;;;;;;;;;;;;;9.52;55.71;100066.94;4291727;33;19998;-84
2021/12/19 08:43:13;;;;;;;;;;;;;;;9.67;55.56;100072.47;4292717;33;21020;-82
2021/12/19 08:45:40;;;;;;;;;;;;;;;9.48;56.08;100072.88;4290596;33;20011;-85
2021/12/19 08:48:08;;;;;;;;;;;;;;;9.62;55.76;100074.06;4292400;33;20011;-85
2021/12/19 08:50:35;;;;;;;;;;;;;;;9.48;55.96;100072.88;4291847;33;20036;-81
2021/12/19 08:53:02;;;;;;;;;;;;;;;9.46;56.47;100066.78;4290919;33;19991;-84
2021/12/19 08:55:33;;;;;;;;;;;;;;;9.50;55.90;100053.97;4293002;33;19993;-84
2021/12/19 08:58:00;;;;;;;;;;;;;;;9.51;56.04;100044.53;4293335;33;20252;-82
2021/12/19 09:00:27;;;;;;;;;;;;;;;9.50;56.08;100060.84;4295992;33;20031;-84
2021/12/19 09:02:55;;;;;;;;;;;;;;;8.99;57.77;100053.56;4298039;33;19984;-83
2021/12/19 09:05:26;;;;;;;;;;;;;;;9.40;56.63;100041.69;4296484;33;19992;-83
2021/12/19 09:07:53;;;;;;;;;;;;;;;9.07;58.12;100041.75;4292870;33;20051;-82
2021/12/19 09:10:20;;;;;;;;;;;;;;;9.41;56.70;100034.78;4292260;33;19988;-81
2021/12/19 09:12:47;;;;;;;;;;;;;;;9.85;55.74;100029.78;4303119;33;19980;-81
2021/12/19 09:15:14;;;;;;;;;;;;;;;10.08;54.67;100028.53;4292005;33;19980;-80
2021/12/19 09:17:41;;;;;;;;;;;;;;;10.14;54.93;100033.84;4292312;33;20051;-78
2021/12/19 09:20:08;;;;;;;;;;;;;;;9.91;55.48;100032.50;4292533;33;20008;-82
2021/12/19 09:22:36;;;;;;;;;;;;;;;10.04;55.19;100021.56;4264890;33;20087;-81
2021/12/19 09:25:15;;;;;;;;;;;;;;;10.42;53.67;100018.94;4287191;33;20052;-83
2021/12/19 09:27:43;;;;;;;;;;;;;;;10.43;53.47;100015.50;4288268;33;20319;-83
2021/12/19 09:30:10;;;;;;;;;;;;;;;10.69;53.05;100005.66;4288474;33;20056;-83
2021/12/19 09:33:11;;;;;;;;;;;;;;;11.07;51.77;100001.12;4305521;33;20056;-81
2021/12/19 09:35:38;;;;;;;;;;;;;;;10.55;52.51;99989.84;4291329;33;19988;-81
2021/12/19 09:38:05;;;;;;;;;;;;;;;10.68;53.00;99996.97;4290865;33;19993;-82
2021/12/19 09:40:35;;;;;;;;;;;;;;;11.03;51.35;99993.28;4278230;33;19993;-81
2021/12/19 09:43:04;;;;;;;;;;;;;;;10.91;51.95;99986.16;4283795;33;19993;-82
2021/12/19 09:45:32;;;;;;;;;;;;;;;10.55;52.75;99979.50;4290460;33;20001;-80
2021/12/19 09:47:59;;;;;;;;;;;;;;;10.10;53.61;99980.31;4290413;33;20019;-82
2021/12/19 09:50:27;;;;;;;;;;;;;;;10.33;53.40;99987.69;4292626;33;20014;-83
2021/12/19 09:52:54;;;;;;;;;;;;;;;10.41;52.62;99965.44;4291377;33;19984;-82
2021/12/19 09:55:22;;;;;;;;;;;;;;;10.57;52.69;99957.09;4291763;33;20004;-83
2021/12/19 09:57:49;;;;;;;;;;;;;;;10.69;52.29;99957.31;4291344;33;20329;-83
2021/12/19 10:00:16;;;;;;;;;;;;;;;10.69;51.69;99946.09;4297826;33;20403;-82
2021/12/19 10:02:43;;;;;;;;;;;;;;;10.56;52.36;99924.31;4289424;33;19980;-82
2021/12/19 10:05:23;;;;;;;;;;;;;;;10.91;51.15;99921.41;4292164;33;20030;-80
2021/12/19 10:07:56;;;;;;;;;;;;;;;10.80;51.16;99920.38;4291351;33;19998;-81
2021/12/19 10:10:44;;;;;;;;;;;;;;;10.75;51.13;99911.66;4290078;33;19996;-83
2021/12/19 10:13:12;;;;;;;;;;;;;;;10.17;52.71;99904.59;4291877;33;19996;-82
2021/12/19 10:15:41;;;;;;;;;;;;;;;9.97;53.30;99911.09;4293014;33;20828;-81
2021/12/19 10:18:09;;;;;;;;;;;;;;;10.00;53.11;99911.16;4292112;33;20304;-82
2021/12/19 10:20:47;;;;;;;;;;;;;;;10.14;52.67;99899.34;4290310;33;19984;-82
2021/12/19 10:23:21;;;;;;;;;;;;;;;9.89;53.44;99889.38;4290343;33;20057;-84
2021/12/19 10:25:56;;;;;;;;;;;;;;;9.93;53.38;99884.31;4292323;33;19988;-86
2021/12/19 10:28:23;;;;;;;;;;;;;;;9.43;54.75;99875.53;4286297;33;19992;-84
2021/12/19 10:30:50;;;;;;;;;;;;;;;9.77;53.60;99877.09;4287243;33;20440;-85
2021/12/19 10:33:18;;;;;;;;;;;;;;;9.83;53.59;99876.31;4290353;33;19976;-84
2021/12/19 10:35:47;;;;;;;;;;;;;;;9.55;54.91;99875.78;4290641;33;20040;-84
2021/12/19 10:38:15;;;;;;;;;;;;;;;9.80;54.04;99861.66;4291297;33;20012;-84
2021/12/19 10:40:49;;;;;;;;;;;;;;;9.90;53.62;99865.28;4284666;33;20353;-86
2021/12/19 10:43:17;;;;;;;;;;;;;;;9.99;53.55;99858.56;4278319;33;19983;-83
2021/12/19 10:45:45;;;;;;;;;;;;;;;9.67;54.08;99855.38;4288219;33;19976;-83
2021/12/19 10:48:18;;;;;;;;;;;;;;;9.97;53.01;99862.84;4291663;33;19993;-84
2021/12/19 10:50:46;;;;;;;;;;;;;;;9.59;54.45;99862.09;4289272;33;19996;-84
2021/12/19 10:53:15;;;;;;;;;;;;;;;9.24;55.43;99864.81;4292174;33;20926;-80
2021/12/19 10:55:46;;;;;;;;;;;;;;;9.76;54.12;99880.50;4291026;33;20406;-84
2021/12/19 10:58:24;;;;;;;;;;;;;;;9.80;53.62;99871.13;4302130;33;21151;-87
2021/12/19 11:01:03;;;;;;;;;;;;;;;10.02;53.14;99879.31;4291858;33;19988;-86
2021/12/19 11:03:34;;;;;;;;;;;;;;;9.82;53.58;99879.75;4290070;33;19988;-87
2021/12/19 11:06:04;;;;;;;;;;;;;;;9.76;54.09;99878.81;4303953;33;20093;-85
2021/12/19 11:08:31;;;;;;;;;;;;;;;9.94;53.17;99869.66;4289856;33;19996;-87
2021/12/19 11:10:58;;;;;;;;;;;;;;;9.56;54.64;99877.53;4291461;33;19992;-86
2021/12/19 11:13:25;;;;;;;;;;;;;;;9.94;53.03;99874.84;4291872;33;20142;-84
2021/12/19 11:15:52;;;;;;;;;;;;;;;9.86;53.42;99866.03;4291927;33;20081;-87
2021/12/19 11:18:19;;;;;;;;;;;;;;;9.98;53.02;99871.47;4293482;33;20812;-85
2021/12/19 11:20:47;;;;;;;;;;;;;;;10.10;53.03;99881.16;4292229;33;19981;-85
2021/12/19 11:23:14;;;;;;;;;;;;;;;9.92;53.62;99897.19;4292288;33;19995;-83
2021/12/19 11:25:42;;;;;;;;;;;;;;;9.97;52.90;99896.44;4285972;33;22446;-85
2021/12/19 11:28:08;;;;;;;;;;;;;;;10.14;52.37;99904.53;4276170;33;20011;-83
2021/12/19 11:30:37;;;;;;;;;;;;;;;10.16;51.57;99902.84;4290769;33;20001;-83
2021/12/19 11:33:18;;;;;;;;;;;;;;;10.16;52.41;99908.03;4280319;33;19984;-85
2021/12/19 11:35:46;;;;;;;;;;;;;;;9.88;53.12;99895.41;4290600;33;20016;-84
2021/12/19 11:38:14;;;;;;;;;;;;;;;10.13;51.67;99892.44;4291618;33;20007;-85
2021/12/19 11:40:42;;;;;;;;;;;;;;;9.95;53.02;99892.09;4290180;33;20040;-85
2021/12/19 11:43:17;;;;;;;;;;;;;;;10.47;51.24;99893.09;4293052;33;20015;-79
2021/12/19 11:48:38;;;;;;;;;;;;;;;10.34;51.91;99885.94;4291499;33;20015;-86
2021/12/19 11:51:06;;;;;;;;;;;;;;;10.27;52.05;99884.09;4291562;33;19984;-84
2021/12/19 11:53:41;;;;;;;;;;;;;;;10.54;50.51;99878.53;4289601;33;20024;-82
2021/12/19 11:56:16;;;;;;;;;;;;;;;10.55;50.48;99875.97;4289593;33;20023;-81
2021/12/19 11:58:48;;;;;;;;;;;;;;;10.41;51.42;99883.50;4292570;33;19989;-81
2021/12/19 12:01:16;;;;;;;;;;;;;;;10.44;50.88;99869.75;4292934;33;19992;-84
2021/12/19 12:03:45;;;;;;;;;;;;;;;10.63;50.41;99879.56;4290919;33;20351;-84
2021/12/19 12:06:16;;;;;;;;;;;;;;;10.56;50.78;99869.97;4291657;33;20000;-80
2021/12/19 12:09:02;;;;;;;;;;;;;;;10.70;50.30;99870.19;4286545;33;20224;-81
2021/12/19 12:11:29;;;;;;;;;;;;;;;10.55;50.92;99870.78;4292874;33;19985;-82
2021/12/19 12:14:16;;;;;;;;;;;;;;;10.50;50.31;99872.44;4301211;33;19985;-82
2021/12/19 12:16:50;;;;;;;;;;;;;;;10.49;50.59;99875.84;4288694;33;20008;-81
2021/12/19 12:19:17;;;;;;;;;;;;;;;10.63;50.10;99869.22;4285373;33;20713;-82
2021/12/19 12:21:49;;;;;;;;;;;;;;;10.18;51.95;99875.31;4298714;33;20080;-79
2021/12/19 12:24:17;;;;;;;;;;;;;;;10.38;50.93;99873.09;4290352;33;20014;-80
2021/12/19 12:26:51;;;;;;;;;;;;;;;10.48;50.97;99863.78;4283048;33;20027;-81
2021/12/19 12:29:19;;;;;;;;;;;;;;;9.27;53.43;99859.69;4316304;33;20023;-82
2021/12/19 12:31:48;;;;;;;;;;;;;;;9.84;52.60;99862.59;4316631;33;20037;-80
2021/12/19 12:34:17;;;;;;;;;;;;;;;9.83;52.72;99859.13;4313553;33;19996;-80
2021/12/19 12:36:45;;;;;;;;;;;;;;;9.91;52.76;99856.69;4324466;33;20775;-80
2021/12/19 12:39:18;;;;;;;;;;;;;;;10.24;51.08;99839.19;4318590;33;19999;-80
2021/12/19 12:44:18;;;;;;;;;;;;;;;10.10;51.91;99839.78;4320355;33;20034;-80
2021/12/19 12:46:46;;;;;;;;;;;;;;;10.24;51.05;99841.78;4333204;32;20015;-81
2021/12/19 12:49:18;;;;;;;;;;;;;;;10.12;51.59;99833.81;4331911;33;20125;-81
2021/12/19 12:51:49;;;;;;;;;;;;;;;10.11;51.57;99829.47;4318161;33;20392;-81
2021/12/19 12:54:21;;;;;;;;;;;;;;;10.05;51.91;99831.06;4295497;33;20015;-80
2021/12/19 12:56:50;;;;;;;;;;;;;;;9.85;52.54;99826.41;4319099;33;20175;-81
2021/12/19 12:59:24;;;;;;;;;;;;;;;10.19;51.23;99824.44;4313647;33;20007;-80
2021/12/19 13:01:54;;;;;;;;;;;;;;;9.87;52.29;99831.63;4307114;33;20787;-80
2021/12/19 13:04:27;;;;;;;;;;;;;;;9.84;52.45;99826.37;4316692;33;20013;-81
2021/12/19 13:07:04;;;;;;;;;;;;;;;9.95;52.02;99824.84;4304543;33;20004;-81
2021/12/19 13:09:45;;;;;;;;;;;;;;;9.79;52.19;99805.59;4315511;33;21074;-82
2021/12/19 13:12:17;;;;;;;;;;;;;;;9.76;52.64;99803.84;4284758;33;20052;-82
2021/12/19 13:14:48;;;;;;;;;;;;;;;9.68;53.08;99810.59;4305563;33;20104;-82
2021/12/19 13:17:20;;;;;;;;;;;;;;;9.83;52.75;99809.13;4306055;33;19991;-83
2021/12/19 13:19:59;;;;;;;;;;;;;;;9.85;52.62;99804.84;4316959;33;20018;-81
2021/12/19 13:23:03;;;;;;;;;;;;;;;9.67;52.79;99798.50;4310363;33;20347;-82
2021/12/19 13:25:42;;;;;;;;;;;;;;;9.85;52.52;99802.28;4292697;33;20035;-81
2021/12/19 13:28:12;;;;;;;;;;;;;;;9.87;52.47;99795.44;4300073;33;20015;-81
2021/12/19 13:30:42;;;;;;;;;;;;;;;10.07;51.68;99788.88;4300321;33;20050;-80
2021/12/19 13:33:14;;;;;;;;;;;;;;;9.44;53.74;99789.44;4316487;33;20801;-79
2021/12/19 13:35:51;;;;;;;;;;;;;;;9.51;53.49;99788.72;4312054;33;19980;-84
2021/12/19 13:38:24;;;;;;;;;;;;;;;9.70;52.81;99788.22;4308080;33;20074;-87
2021/12/19 13:40:51;;;;;;;;;;;;;;;9.52;53.41;99767.22;4304238;33;20046;-85
2021/12/19 13:43:19;;;;;;;;;;;;;;;9.44;53.94;99758.44;4305003;33;20315;-86
2021/12/19 13:45:47;;;;;;;;;;;;;;;9.51;53.66;99760.31;4304139;33;20000;-87
2021/12/19 13:48:27;;;;;;;;;;;;;;;9.27;54.91;99746.06;4293735;33;20543;-86
2021/12/19 13:50:53;;;;;;;;;;;;;;;9.84;52.70;99754.00;4292058;33;20400;-89
2021/12/19 13:53:21;;;;;;;;;;;;;;;9.78;52.90;99753.03;4295974;33;20997;-84
2021/12/19 13:56:07;;;;;;;;;;;;;;;9.73;52.77;99746.03;4297241;33;20417;-83
2021/12/19 13:58:36;;;;;;;;;;;;;;;9.44;53.37;99748.09;4291321;33;19992;-88
2021/12/19 14:01:10;;;;;;;;;;;;;;;9.44;53.84;99758.44;4286183;33;20744;-85
2021/12/19 14:03:37;;;;;;;;;;;;;;;9.24;54.10;99761.50;4291991;33;20123;-87
2021/12/19 14:06:04;;;;;;;;;;;;;;;9.51;53.36;99760.31;4282636;33;19989;-85
2021/12/19 14:08:32;;;;;;;;;;;;;;;9.77;52.20;99748.72;4286462;33;19997;-84
2021/12/19 14:11:09;;;;;;;;;;;;;;;9.50;53.34;99759.41;4273854;33;19993;-83